sensor_id;sensor_type;location;lat;lon;timestamp;temperature;humidity
70708;SHT30;58277;47.316;18.908;2024-03-23T00:54:30;8.35;77.64
70708;SHT30;58277;47.316;18.908;2024-03-23T00:56:51;8.46;77.22
70708;SHT30;58277;47.316;18.908;2024-03-23T00:59:14;8.50;75.75
70708;SHT30;58277;47.316;18.908;2024-03-23T01:01:36;8.46;75.68
70708;SHT30;58277;47.316;18.908;2024-03-23T01:03:57;8.39;75.87
70708;SHT30;58277;47.316;18.908;2024-03-23T01:06:19;8.36;75.78
70708;SHT30;58277;47.316;18.908;2024-03-23T01:08:41;8.31;75.62
70708;SHT30;58277;47.316;18.908;2024-03-23T01:11:03;8.28;75.74
70708;SHT30;58277;47.316;18.908;2024-03-23T01:13:26;8.14;76.46
70708;SHT30;58277;47.316;18.908;2024-03-23T01:15:49;8.15;77.04
70708;SHT30;58277;47.316;18.908;2024-03-23T01:18:11;8.11;77.40
70708;SHT30;58277;47.316;18.908;2024-03-23T01:20:33;8.11;77.51
70708;SHT30;58277;47.316;18.908;2024-03-23T01:22:54;8.14;77.67
70708;SHT30;58277;47.316;18.908;2024-03-23T01:25:16;8.15;78.14
70708;SHT30;58277;47.316;18.908;2024-03-23T01:27:38;8.24;77.97
70708;SHT30;58277;47.316;18.908;2024-03-23T01:29:59;8.28;77.78
70708;SHT30;58277;47.316;18.908;2024-03-23T01:32:21;8.38;77.27
70708;SHT30;58277;47.316;18.908;2024-03-23T01:34:43;8.33;77.53
70708;SHT30;58277;47.316;18.908;2024-03-23T01:37:04;8.25;78.36
70708;SHT30;58277;47.316;18.908;2024-03-23T01:39:26;8.28;78.32
70708;SHT30;58277;47.316;18.908;2024-03-23T01:41:48;8.39;77.95
70708;SHT30;58277;47.316;18.908;2024-03-23T01:44:10;8.35;77.76
70708;SHT30;58277;47.316;18.908;2024-03-23T01:46:32;8.21;77.89
70708;SHT30;58277;47.316;18.908;2024-03-23T01:48:54;8.26;78.25
70708;SHT30;58277;47.316;18.908;2024-03-23T01:51:16;8.16;78.56
70708;SHT30;58277;47.316;18.908;2024-03-23T01:53:38;8.09;78.74
70708;SHT30;58277;47.316;18.908;2024-03-23T01:55:59;8.09;78.76
70708;SHT30;58277;47.316;18.908;2024-03-23T01:58:21;8.02;78.64
70708;SHT30;58277;47.316;18.908;2024-03-23T02:00:43;7.95;78.79
70708;SHT30;58277;47.316;18.908;2024-03-23T02:03:30;7.91;78.76
70708;SHT30;58277;47.316;18.908;2024-03-23T02:05:53;7.73;79.31
70708;SHT30;58277;47.316;18.908;2024-03-23T02:08:17;7.60;79.66
70708;SHT30;58277;47.316;18.908;2024-03-23T02:10:39;7.45;80.03
70708;SHT30;58277;47.316;18.908;2024-03-23T02:13:00;7.50;80.05
70708;SHT30;58277;47.316;18.908;2024-03-23T02:15:22;7.45;80.35
70708;SHT30;58277;47.316;18.908;2024-03-23T02:17:44;7.56;80.08
70708;SHT30;58277;47.316;18.908;2024-03-23T02:20:06;7.73;80.89
70708;SHT30;58277;47.316;18.908;2024-03-23T02:22:39;7.80;82.24
70708;SHT30;58277;47.316;18.908;2024-03-23T02:25:01;7.93;83.31
70708;SHT30;58277;47.316;18.908;2024-03-23T02:27:24;8.04;82.75
70708;SHT30;58277;47.316;18.908;2024-03-23T02:29:46;8.05;81.57
70708;SHT30;58277;47.316;18.908;2024-03-23T02:32:07;7.90;80.96
70708;SHT30;58277;47.316;18.908;2024-03-23T02:34:30;7.74;81.44
70708;SHT30;58277;47.316;18.908;2024-03-23T02:36:52;7.69;82.21
70708;SHT30;58277;47.316;18.908;2024-03-23T02:39:13;7.73;82.39
70708;SHT30;58277;47.316;18.908;2024-03-23T02:41:36;7.88;83.15
70708;SHT30;58277;47.316;18.908;2024-03-23T02:43:58;7.81;82.55
70708;SHT30;58277;47.316;18.908;2024-03-23T02:46:20;7.80;82.31
70708;SHT30;58277;47.316;18.908;2024-03-23T02:48:41;7.85;83.63
70708;SHT30;58277;47.316;18.908;2024-03-23T02:51:03;7.73;85.24
70708;SHT30;58277;47.316;18.908;2024-03-23T02:53:25;7.71;85.71
70708;SHT30;58277;47.316;18.908;2024-03-23T02:55:47;7.87;84.55
70708;SHT30;58277;47.316;18.908;2024-03-23T02:58:09;7.94;83.84
70708;SHT30;58277;47.316;18.908;2024-03-23T03:00:30;7.97;84.03
70708;SHT30;58277;47.316;18.908;2024-03-23T03:02:52;7.87;84.18
70708;SHT30;58277;47.316;18.908;2024-03-23T03:05:14;7.84;84.48
70708;SHT30;58277;47.316;18.908;2024-03-23T03:07:35;7.83;84.83
70708;SHT30;58277;47.316;18.908;2024-03-23T03:09:59;7.84;84.58
70708;SHT30;58277;47.316;18.908;2024-03-23T03:12:21;7.90;84.37
70708;SHT30;58277;47.316;18.908;2024-03-23T03:14:43;7.71;84.59
70708;SHT30;58277;47.316;18.908;2024-03-23T03:17:05;7.59;84.54
70708;SHT30;58277;47.316;18.908;2024-03-23T03:19:26;7.53;84.40
70708;SHT30;58277;47.316;18.908;2024-03-23T03:21:48;7.53;84.34
70708;SHT30;58277;47.316;18.908;2024-03-23T03:24:11;7.56;84.98
70708;SHT30;58277;47.316;18.908;2024-03-23T03:26:33;7.62;85.17
70708;SHT30;58277;47.316;18.908;2024-03-23T03:28:55;7.63;83.78
70708;SHT30;58277;47.316;18.908;2024-03-23T03:31:20;7.69;84.63
70708;SHT30;58277;47.316;18.908;2024-03-23T03:33:43;7.64;85.71
70708;SHT30;58277;47.316;18.908;2024-03-23T03:36:05;7.70;85.80
70708;SHT30;58277;47.316;18.908;2024-03-23T03:38:26;7.71;85.87
70708;SHT30;58277;47.316;18.908;2024-03-23T03:40:48;7.84;84.70
70708;SHT30;58277;47.316;18.908;2024-03-23T03:43:10;7.77;84.89
70708;SHT30;58277;47.316;18.908;2024-03-23T03:45:31;7.62;86.08
70708;SHT30;58277;47.316;18.908;2024-03-23T03:47:53;7.56;86.45
70708;SHT30;58277;47.316;18.908;2024-03-23T03:50:15;7.67;85.83
70708;SHT30;58277;47.316;18.908;2024-03-23T03:52:37;7.81;84.73
70708;SHT30;58277;47.316;18.908;2024-03-23T03:55:02;7.76;84.49
70708;SHT30;58277;47.316;18.908;2024-03-23T03:57:23;7.70;85.68
70708;SHT30;58277;47.316;18.908;2024-03-23T03:59:45;7.60;86.85
70708;SHT30;58277;47.316;18.908;2024-03-23T04:02:07;7.56;87.10
70708;SHT30;58277;47.316;18.908;2024-03-23T04:04:28;7.63;86.90
70708;SHT30;58277;47.316;18.908;2024-03-23T04:06:58;7.59;87.03
70708;SHT30;58277;47.316;18.908;2024-03-23T04:09:20;7.73;86.40
70708;SHT30;58277;47.316;18.908;2024-03-23T04:11:42;7.84;86.14
70708;SHT30;58277;47.316;18.908;2024-03-23T04:14:03;7.78;86.38
70708;SHT30;58277;47.316;18.908;2024-03-23T04:16:29;7.81;86.35
70708;SHT30;58277;47.316;18.908;2024-03-23T04:18:51;7.87;86.14
70708;SHT30;58277;47.316;18.908;2024-03-23T04:21:13;7.83;86.25
70708;SHT30;58277;47.316;18.908;2024-03-23T04:23:34;7.80;86.24
70708;SHT30;58277;47.316;18.908;2024-03-23T04:26:03;7.66;86.73
70708;SHT30;58277;47.316;18.908;2024-03-23T04:28:24;7.46;87.59
70708;SHT30;58277;47.316;18.908;2024-03-23T04:30:46;7.43;87.87
70708;SHT30;58277;47.316;18.908;2024-03-23T04:33:08;7.40;88.01
70708;SHT30;58277;47.316;18.908;2024-03-23T04:35:30;7.40;87.85
70708;SHT30;58277;47.316;18.908;2024-03-23T04:37:54;7.46;87.60
70708;SHT30;58277;47.316;18.908;2024-03-23T04:40:20;7.50;87.64
70708;SHT30;58277;47.316;18.908;2024-03-23T04:42:41;7.55;87.39
70708;SHT30;58277;47.316;18.908;2024-03-23T04:45:04;7.63;87.18
70708;SHT30;58277;47.316;18.908;2024-03-23T04:47:27;7.80;86.42
70708;SHT30;58277;47.316;18.908;2024-03-23T04:49:50;7.78;86.29
70708;SHT30;58277;47.316;18.908;2024-03-23T04:52:12;7.83;86.14
70708;SHT30;58277;47.316;18.908;2024-03-23T04:54:34;7.81;85.87
70708;SHT30;58277;47.316;18.908;2024-03-23T04:56:56;7.70;86.30
70708;SHT30;58277;47.316;18.908;2024-03-23T04:59:18;7.73;86.57
70708;SHT30;58277;47.316;18.908;2024-03-23T05:01:39;7.95;85.69
70708;SHT30;58277;47.316;18.908;2024-03-23T05:04:04;7.95;85.62
70708;SHT30;58277;47.316;18.908;2024-03-23T05:06:27;8.04;85.20
70708;SHT30;58277;47.316;18.908;2024-03-23T05:08:48;8.12;85.27
70708;SHT30;58277;47.316;18.908;2024-03-23T05:11:10;8.22;84.83
70708;SHT30;58277;47.316;18.908;2024-03-23T05:13:32;8.28;84.70
70708;SHT30;58277;47.316;18.908;2024-03-23T05:15:54;8.38;84.36
70708;SHT30;58277;47.316;18.908;2024-03-23T05:18:16;8.50;83.88
70708;SHT30;58277;47.316;18.908;2024-03-23T05:20:39;8.54;83.42
70708;SHT30;58277;47.316;18.908;2024-03-23T05:23:00;8.62;83.05
70708;SHT30;58277;47.316;18.908;2024-03-23T05:25:22;8.67;82.87
70708;SHT30;58277;47.316;18.908;2024-03-23T05:27:44;8.74;82.54
70708;SHT30;58277;47.316;18.908;2024-03-23T05:30:06;8.53;82.96
70708;SHT30;58277;47.316;18.908;2024-03-23T05:32:28;8.33;83.68
70708;SHT30;58277;47.316;18.908;2024-03-23T05:34:50;8.26;84.09
70708;SHT30;58277;47.316;18.908;2024-03-23T05:37:17;8.42;83.54
70708;SHT30;58277;47.316;18.908;2024-03-23T05:39:38;8.38;83.81
70708;SHT30;58277;47.316;18.908;2024-03-23T05:42:00;8.62;83.17
70708;SHT30;58277;47.316;18.908;2024-03-23T05:44:22;8.56;83.27
70708;SHT30;58277;47.316;18.908;2024-03-23T05:46:44;8.46;83.31
70708;SHT30;58277;47.316;18.908;2024-03-23T05:49:10;8.62;83.00
70708;SHT30;58277;47.316;18.908;2024-03-23T05:51:31;8.63;83.02
70708;SHT30;58277;47.316;18.908;2024-03-23T05:53:53;8.79;82.82
70708;SHT30;58277;47.316;18.908;2024-03-23T05:56:19;8.81;82.25
70708;SHT30;58277;47.316;18.908;2024-03-23T05:58:41;8.97;81.97
70708;SHT30;58277;47.316;18.908;2024-03-23T06:01:03;9.22;81.04
70708;SHT30;58277;47.316;18.908;2024-03-23T06:03:25;9.25;80.62
70708;SHT30;58277;47.316;18.908;2024-03-23T06:05:46;9.45;79.91
70708;SHT30;58277;47.316;18.908;2024-03-23T06:08:08;9.40;80.07
70708;SHT30;58277;47.316;18.908;2024-03-23T06:10:31;9.82;78.82
70708;SHT30;58277;47.316;18.908;2024-03-23T06:12:55;9.87;78.20
70708;SHT30;58277;47.316;18.908;2024-03-23T06:15:20;10.10;77.83
70708;SHT30;58277;47.316;18.908;2024-03-23T06:17:43;10.31;76.26
70708;SHT30;58277;47.316;18.908;2024-03-23T06:20:06;10.38;76.11
70708;SHT30;58277;47.316;18.908;2024-03-23T06:22:27;10.51;76.04
70708;SHT30;58277;47.316;18.908;2024-03-23T06:24:49;10.69;74.71
70708;SHT30;58277;47.316;18.908;2024-03-23T06:27:11;10.75;75.06
70708;SHT30;58277;47.316;18.908;2024-03-23T06:29:32;10.92;74.34
70708;SHT30;58277;47.316;18.908;2024-03-23T06:31:54;11.01;74.66
70708;SHT30;58277;47.316;18.908;2024-03-23T06:34:16;11.39;74.21
70708;SHT30;58277;47.316;18.908;2024-03-23T06:36:38;11.81;72.14
70708;SHT30;58277;47.316;18.908;2024-03-23T06:39:00;11.72;71.79
70708;SHT30;58277;47.316;18.908;2024-03-23T06:41:21;11.35;72.54
70708;SHT30;58277;47.316;18.908;2024-03-23T06:43:43;11.16;73.27
70708;SHT30;58277;47.316;18.908;2024-03-23T06:46:05;11.17;73.57
70708;SHT30;58277;47.316;18.908;2024-03-23T06:48:27;11.41;72.75
70708;SHT30;58277;47.316;18.908;2024-03-23T06:50:48;11.78;71.72
70708;SHT30;58277;47.316;18.908;2024-03-23T06:53:10;12.13;70.55
70708;SHT30;58277;47.316;18.908;2024-03-23T06:55:32;12.31;70.43
70708;SHT30;58277;47.316;18.908;2024-03-23T06:57:53;12.51;70.03
70708;SHT30;58277;47.316;18.908;2024-03-23T07:00:15;12.40;70.12
70708;SHT30;58277;47.316;18.908;2024-03-23T07:02:38;12.41;70.28
70708;SHT30;58277;47.316;18.908;2024-03-23T07:04:59;12.48;70.44
70708;SHT30;58277;47.316;18.908;2024-03-23T07:07:22;13.13;68.39
70708;SHT30;58277;47.316;18.908;2024-03-23T07:09:43;13.54;67.38
70708;SHT30;58277;47.316;18.908;2024-03-23T07:12:05;13.68;66.32
70708;SHT30;58277;47.316;18.908;2024-03-23T07:14:27;13.44;66.91
70708;SHT30;58277;47.316;18.908;2024-03-23T07:16:51;13.57;67.50
70708;SHT30;58277;47.316;18.908;2024-03-23T07:19:13;13.64;66.82
70708;SHT30;58277;47.316;18.908;2024-03-23T07:21:36;13.63;66.81
70708;SHT30;58277;47.316;18.908;2024-03-23T07:23:58;13.48;66.91
70708;SHT30;58277;47.316;18.908;2024-03-23T07:26:19;13.63;66.68
70708;SHT30;58277;47.316;18.908;2024-03-23T07:28:43;13.77;66.62
70708;SHT30;58277;47.316;18.908;2024-03-23T07:31:13;13.94;66.22
70708;SHT30;58277;47.316;18.908;2024-03-23T07:33:37;13.95;66.06
70708;SHT30;58277;47.316;18.908;2024-03-23T07:35:59;13.94;66.23
70708;SHT30;58277;47.316;18.908;2024-03-23T07:38:21;13.77;66.29
70708;SHT30;58277;47.316;18.908;2024-03-23T07:40:43;14.12;66.02
70708;SHT30;58277;47.316;18.908;2024-03-23T07:43:05;15.63;61.88
70708;SHT30;58277;47.316;18.908;2024-03-23T07:45:26;16.83;58.50
70708;SHT30;58277;47.316;18.908;2024-03-23T07:47:48;17.72;56.21
70708;SHT30;58277;47.316;18.908;2024-03-23T07:50:10;17.97;54.89
70708;SHT30;58277;47.316;18.908;2024-03-23T07:52:31;18.14;54.98
70708;SHT30;58277;47.316;18.908;2024-03-23T07:54:53;18.03;54.81
70708;SHT30;58277;47.316;18.908;2024-03-23T07:57:15;18.14;54.62
70708;SHT30;58277;47.316;18.908;2024-03-23T07:59:36;18.34;54.53
70708;SHT30;58277;47.316;18.908;2024-03-23T08:01:58;18.76;53.08
70708;SHT30;58277;47.316;18.908;2024-03-23T08:04:20;17.80;55.23
70708;SHT30;58277;47.316;18.908;2024-03-23T08:06:41;18.28;54.67
70708;SHT30;58277;47.316;18.908;2024-03-23T08:09:03;18.14;54.71
70708;SHT30;58277;47.316;18.908;2024-03-23T08:11:26;18.04;54.80
70708;SHT30;58277;47.316;18.908;2024-03-23T08:13:48;17.90;55.89
70708;SHT30;58277;47.316;18.908;2024-03-23T08:16:10;18.11;54.79
70708;SHT30;58277;47.316;18.908;2024-03-23T08:18:32;18.10;55.08
70708;SHT30;58277;47.316;18.908;2024-03-23T08:23:19;17.93;55.37
70708;SHT30;58277;47.316;18.908;2024-03-23T08:25:41;18.07;54.99
70708;SHT30;58277;47.316;18.908;2024-03-23T08:28:02;18.72;53.60
70708;SHT30;58277;47.316;18.908;2024-03-23T08:30:25;18.93;53.36
70708;SHT30;58277;47.316;18.908;2024-03-23T08:32:47;19.20;52.83
70708;SHT30;58277;47.316;18.908;2024-03-23T08:35:09;19.55;51.85
70708;SHT30;58277;47.316;18.908;2024-03-23T08:37:31;19.64;52.30
70708;SHT30;58277;47.316;18.908;2024-03-23T08:39:52;19.14;52.60
70708;SHT30;58277;47.316;18.908;2024-03-23T08:42:17;19.28;52.44
70708;SHT30;58277;47.316;18.908;2024-03-23T08:44:39;19.67;51.89
70708;SHT30;58277;47.316;18.908;2024-03-23T08:47:01;19.83;51.69
70708;SHT30;58277;47.316;18.908;2024-03-23T08:49:23;19.70;51.36
70708;SHT30;58277;47.316;18.908;2024-03-23T08:51:45;19.79;50.90
70708;SHT30;58277;47.316;18.908;2024-03-23T08:54:07;19.90;51.25
70708;SHT30;58277;47.316;18.908;2024-03-23T08:56:29;20.04;50.65
70708;SHT30;58277;47.316;18.908;2024-03-23T08:58:50;19.96;50.59
70708;SHT30;58277;47.316;18.908;2024-03-23T09:01:13;20.20;49.98
70708;SHT30;58277;47.316;18.908;2024-03-23T09:03:35;20.12;50.19
70708;SHT30;58277;47.316;18.908;2024-03-23T09:05:57;20.33;48.95
70708;SHT30;58277;47.316;18.908;2024-03-23T09:08:20;20.68;48.12
70708;SHT30;58277;47.316;18.908;2024-03-23T09:10:42;20.83;47.05
70708;SHT30;58277;47.316;18.908;2024-03-23T09:13:04;20.83;46.72
70708;SHT30;58277;47.316;18.908;2024-03-23T09:15:26;20.90;47.04
70708;SHT30;58277;47.316;18.908;2024-03-23T09:17:48;20.71;45.76
70708;SHT30;58277;47.316;18.908;2024-03-23T09:20:09;20.43;45.36
70708;SHT30;58277;47.316;18.908;2024-03-23T09:22:31;20.37;45.97
70708;SHT30;58277;47.316;18.908;2024-03-23T09:24:53;20.34;46.47
70708;SHT30;58277;47.316;18.908;2024-03-23T09:27:15;20.41;46.80
70708;SHT30;58277;47.316;18.908;2024-03-23T09:29:36;20.65;45.65
70708;SHT30;58277;47.316;18.908;2024-03-23T09:31:58;20.85;45.61
70708;SHT30;58277;47.316;18.908;2024-03-23T09:34:20;20.57;46.27
70708;SHT30;58277;47.316;18.908;2024-03-23T09:36:41;20.41;46.68
70708;SHT30;58277;47.316;18.908;2024-03-23T09:39:03;20.50;46.68
70708;SHT30;58277;47.316;18.908;2024-03-23T09:41:26;20.56;47.22
70708;SHT30;58277;47.316;18.908;2024-03-23T09:43:52;20.44;47.51
70708;SHT30;58277;47.316;18.908;2024-03-23T09:46:14;20.50;47.22
70708;SHT30;58277;47.316;18.908;2024-03-23T09:48:36;20.44;47.47
70708;SHT30;58277;47.316;18.908;2024-03-23T09:50:58;20.30;47.39
70708;SHT30;58277;47.316;18.908;2024-03-23T09:53:19;20.26;46.81
70708;SHT30;58277;47.316;18.908;2024-03-23T09:55:42;20.27;47.68
70708;SHT30;58277;47.316;18.908;2024-03-23T09:58:06;20.39;47.44
70708;SHT30;58277;47.316;18.908;2024-03-23T10:00:28;20.48;47.60
70708;SHT30;58277;47.316;18.908;2024-03-23T10:02:50;20.74;47.29
70708;SHT30;58277;47.316;18.908;2024-03-23T10:05:22;20.88;45.82
70708;SHT30;58277;47.316;18.908;2024-03-23T10:07:44;21.01;45.12
70708;SHT30;58277;47.316;18.908;2024-03-23T10:10:10;21.06;45.33
70708;SHT30;58277;47.316;18.908;2024-03-23T10:12:33;21.02;44.94
70708;SHT30;58277;47.316;18.908;2024-03-23T10:14:55;20.96;45.49
70708;SHT30;58277;47.316;18.908;2024-03-23T10:17:21;21.28;45.44
70708;SHT30;58277;47.316;18.908;2024-03-23T10:19:47;21.15;45.58
70708;SHT30;58277;47.316;18.908;2024-03-23T10:22:09;21.26;44.68
70708;SHT30;58277;47.316;18.908;2024-03-23T10:24:31;21.30;44.93
70708;SHT30;58277;47.316;18.908;2024-03-23T10:26:56;21.60;45.28
70708;SHT30;58277;47.316;18.908;2024-03-23T10:29:18;22.01;44.87
70708;SHT30;58277;47.316;18.908;2024-03-23T10:31:40;22.55;43.05
70708;SHT30;58277;47.316;18.908;2024-03-23T10:34:03;22.69;42.46
70708;SHT30;58277;47.316;18.908;2024-03-23T10:36:25;22.73;40.35
70708;SHT30;58277;47.316;18.908;2024-03-23T10:38:50;22.86;40.90
70708;SHT30;58277;47.316;18.908;2024-03-23T10:41:12;23.06;40.87
70708;SHT30;58277;47.316;18.908;2024-03-23T10:43:36;23.12;40.25
70708;SHT30;58277;47.316;18.908;2024-03-23T10:45:58;22.96;39.12
70708;SHT30;58277;47.316;18.908;2024-03-23T10:48:20;22.87;38.92
70708;SHT30;58277;47.316;18.908;2024-03-23T10:50:42;22.87;38.46
70708;SHT30;58277;47.316;18.908;2024-03-23T10:53:04;22.82;38.39
70708;SHT30;58277;47.316;18.908;2024-03-23T10:55:27;22.74;38.97
70708;SHT30;58277;47.316;18.908;2024-03-23T10:57:52;22.70;38.61
70708;SHT30;58277;47.316;18.908;2024-03-23T11:00:15;22.31;39.53
70708;SHT30;58277;47.316;18.908;2024-03-23T11:02:38;22.32;39.89
70708;SHT30;58277;47.316;18.908;2024-03-23T11:04:59;22.24;40.27
70708;SHT30;58277;47.316;18.908;2024-03-23T11:09:46;22.19;40.18
70708;SHT30;58277;47.316;18.908;2024-03-23T11:14:44;21.69;40.29
70708;SHT30;58277;47.316;18.908;2024-03-23T11:17:10;21.77;40.10
70708;SHT30;58277;47.316;18.908;2024-03-23T11:19:38;21.77;40.26
70708;SHT30;58277;47.316;18.908;2024-03-23T11:22:01;21.83;40.30
70708;SHT30;58277;47.316;18.908;2024-03-23T11:24:23;21.78;40.62
70708;SHT30;58277;47.316;18.908;2024-03-23T11:26:45;21.78;40.48
70708;SHT30;58277;47.316;18.908;2024-03-23T11:29:14;21.94;39.95
70708;SHT30;58277;47.316;18.908;2024-03-23T11:31:52;21.74;39.02
70708;SHT30;58277;47.316;18.908;2024-03-23T11:34:18;21.84;39.80
70708;SHT30;58277;47.316;18.908;2024-03-23T11:36:40;21.98;39.75
70708;SHT30;58277;47.316;18.908;2024-03-23T11:39:14;22.05;39.05
70708;SHT30;58277;47.316;18.908;2024-03-23T11:41:55;22.28;38.89
70708;SHT30;58277;47.316;18.908;2024-03-23T11:44:22;22.24;38.93
70708;SHT30;58277;47.316;18.908;2024-03-23T11:46:45;22.38;38.96
70708;SHT30;58277;47.316;18.908;2024-03-23T11:49:28;22.45;37.95
70708;SHT30;58277;47.316;18.908;2024-03-23T11:51:52;22.69;37.12
70708;SHT30;58277;47.316;18.908;2024-03-23T11:54:16;22.72;37.28
70708;SHT30;58277;47.316;18.908;2024-03-23T11:56:38;22.83;37.59
70708;SHT30;58277;47.316;18.908;2024-03-23T11:59:00;22.99;36.53
70708;SHT30;58277;47.316;18.908;2024-03-23T12:01:22;23.03;36.15
70708;SHT30;58277;47.316;18.908;2024-03-23T12:03:44;22.91;36.34
70708;SHT30;58277;47.316;18.908;2024-03-23T12:06:05;22.59;36.72
70708;SHT30;58277;47.316;18.908;2024-03-23T12:10:53;23.00;36.45
70708;SHT30;58277;47.316;18.908;2024-03-23T12:13:25;23.04;36.45
70708;SHT30;58277;47.316;18.908;2024-03-23T12:15:50;22.83;35.99
70708;SHT30;58277;47.316;18.908;2024-03-23T12:18:12;22.93;36.28
70708;SHT30;58277;47.316;18.908;2024-03-23T12:20:36;23.07;36.36
70708;SHT30;58277;47.316;18.908;2024-03-23T12:23:12;22.97;36.36
70708;SHT30;58277;47.316;18.908;2024-03-23T12:25:37;22.89;36.00
70708;SHT30;58277;47.316;18.908;2024-03-23T12:27:59;22.90;36.15
70708;SHT30;58277;47.316;18.908;2024-03-23T12:30:22;22.66;36.22
70708;SHT30;58277;47.316;18.908;2024-03-23T12:32:44;22.63;36.32
70708;SHT30;58277;47.316;18.908;2024-03-23T12:35:05;22.89;36.60
70708;SHT30;58277;47.316;18.908;2024-03-23T12:37:27;22.84;36.37
70708;SHT30;58277;47.316;18.908;2024-03-23T12:39:49;22.87;36.32
70708;SHT30;58277;47.316;18.908;2024-03-23T12:42:10;22.86;36.64
70708;SHT30;58277;47.316;18.908;2024-03-23T12:44:33;22.67;36.54
70708;SHT30;58277;47.316;18.908;2024-03-23T12:46:55;22.64;36.69
70708;SHT30;58277;47.316;18.908;2024-03-23T12:49:16;22.43;36.82
70708;SHT30;58277;47.316;18.908;2024-03-23T12:51:38;22.16;37.01
70708;SHT30;58277;47.316;18.908;2024-03-23T12:54:00;21.95;37.51
70708;SHT30;58277;47.316;18.908;2024-03-23T12:56:22;22.01;37.56
70708;SHT30;58277;47.316;18.908;2024-03-23T12:58:43;22.11;37.30
70708;SHT30;58277;47.316;18.908;2024-03-23T13:01:06;22.01;37.03
70708;SHT30;58277;47.316;18.908;2024-03-23T13:03:27;21.87;37.16
70708;SHT30;58277;47.316;18.908;2024-03-23T13:05:53;21.80;37.79
70708;SHT30;58277;47.316;18.908;2024-03-23T13:08:14;21.70;38.52
70708;SHT30;58277;47.316;18.908;2024-03-23T13:10:36;21.67;38.27
70708;SHT30;58277;47.316;18.908;2024-03-23T13:12:58;21.64;38.39
70708;SHT30;58277;47.316;18.908;2024-03-23T13:15:19;21.69;38.56
70708;SHT30;58277;47.316;18.908;2024-03-23T13:17:42;21.84;38.23
70708;SHT30;58277;47.316;18.908;2024-03-23T13:20:04;21.80;38.68
70708;SHT30;58277;47.316;18.908;2024-03-23T13:22:26;21.97;38.53
70708;SHT30;58277;47.316;18.908;2024-03-23T13:24:48;22.00;38.07
70708;SHT30;58277;47.316;18.908;2024-03-23T13:27:10;21.80;38.29
70708;SHT30;58277;47.316;18.908;2024-03-23T13:29:32;21.77;38.46
70708;SHT30;58277;47.316;18.908;2024-03-23T13:31:53;21.86;38.50
70708;SHT30;58277;47.316;18.908;2024-03-23T13:34:16;21.88;38.35
70708;SHT30;58277;47.316;18.908;2024-03-23T13:36:37;21.80;38.31
70708;SHT30;58277;47.316;18.908;2024-03-23T13:38:59;21.67;37.98
70708;SHT30;58277;47.316;18.908;2024-03-23T13:41:21;21.60;38.40
70708;SHT30;58277;47.316;18.908;2024-03-23T13:43:43;21.35;37.98
70708;SHT30;58277;47.316;18.908;2024-03-23T13:46:04;21.36;38.20
70708;SHT30;58277;47.316;18.908;2024-03-23T13:48:27;21.22;38.99
70708;SHT30;58277;47.316;18.908;2024-03-23T13:51:00;20.91;39.40
70708;SHT30;58277;47.316;18.908;2024-03-23T13:53:22;20.87;39.64
70708;SHT30;58277;47.316;18.908;2024-03-23T13:55:48;20.91;39.89
70708;SHT30;58277;47.316;18.908;2024-03-23T13:58:10;20.95;40.01
70708;SHT30;58277;47.316;18.908;2024-03-23T14:00:34;21.09;40.16
70708;SHT30;58277;47.316;18.908;2024-03-23T14:02:56;21.08;39.97
70708;SHT30;58277;47.316;18.908;2024-03-23T14:05:18;20.95;40.08
70708;SHT30;58277;47.316;18.908;2024-03-23T14:07:39;20.90;39.93
70708;SHT30;58277;47.316;18.908;2024-03-23T14:10:04;20.80;40.35
70708;SHT30;58277;47.316;18.908;2024-03-23T14:12:28;20.70;40.52
70708;SHT30;58277;47.316;18.908;2024-03-23T14:14:49;20.70;41.14
70708;SHT30;58277;47.316;18.908;2024-03-23T14:17:12;20.67;40.60
70708;SHT30;58277;47.316;18.908;2024-03-23T14:19:35;20.65;40.55
70708;SHT30;58277;47.316;18.908;2024-03-23T14:21:57;20.63;40.40
70708;SHT30;58277;47.316;18.908;2024-03-23T14:24:19;20.56;40.37
70708;SHT30;58277;47.316;18.908;2024-03-23T14:26:42;20.47;40.63
70708;SHT30;58277;47.316;18.908;2024-03-23T14:29:04;20.46;40.72
70708;SHT30;58277;47.316;18.908;2024-03-23T14:31:26;20.43;40.95
70708;SHT30;58277;47.316;18.908;2024-03-23T14:33:47;20.40;41.90
70708;SHT30;58277;47.316;18.908;2024-03-23T14:36:09;20.43;42.75
70708;SHT30;58277;47.316;18.908;2024-03-23T14:38:33;20.44;42.47
70708;SHT30;58277;47.316;18.908;2024-03-23T14:40:58;20.27;43.15
70708;SHT30;58277;47.316;18.908;2024-03-23T14:43:20;20.20;43.82
70708;SHT30;58277;47.316;18.908;2024-03-23T14:46:09;20.02;44.29
70708;SHT30;58277;47.316;18.908;2024-03-23T14:48:31;20.00;44.20
70708;SHT30;58277;47.316;18.908;2024-03-23T14:50:56;20.02;44.59
70708;SHT30;58277;47.316;18.908;2024-03-23T14:53:18;19.92;44.38
70708;SHT30;58277;47.316;18.908;2024-03-23T14:55:40;20.00;43.60
70708;SHT30;58277;47.316;18.908;2024-03-23T14:58:08;19.81;43.56
70708;SHT30;58277;47.316;18.908;2024-03-23T15:00:30;19.78;43.13
70708;SHT30;58277;47.316;18.908;2024-03-23T15:02:52;19.77;43.29
70708;SHT30;58277;47.316;18.908;2024-03-23T15:05:14;19.64;43.01
70708;SHT30;58277;47.316;18.908;2024-03-23T15:07:36;19.60;43.61
70708;SHT30;58277;47.316;18.908;2024-03-23T15:09:59;19.57;43.97
70708;SHT30;58277;47.316;18.908;2024-03-23T15:12:21;19.49;44.75
70708;SHT30;58277;47.316;18.908;2024-03-23T15:14:43;19.46;45.44
70708;SHT30;58277;47.316;18.908;2024-03-23T15:17:05;19.40;45.79
70708;SHT30;58277;47.316;18.908;2024-03-23T15:19:28;19.30;46.57
70708;SHT30;58277;47.316;18.908;2024-03-23T15:21:51;19.27;47.09
70708;SHT30;58277;47.316;18.908;2024-03-23T15:24:12;19.34;47.03
70708;SHT30;58277;47.316;18.908;2024-03-23T15:26:34;19.50;47.13
70708;SHT30;58277;47.316;18.908;2024-03-23T15:28:56;19.38;47.29
70708;SHT30;58277;47.316;18.908;2024-03-23T15:31:18;19.26;48.08
70708;SHT30;58277;47.316;18.908;2024-03-23T15:33:40;19.22;48.08
70708;SHT30;58277;47.316;18.908;2024-03-23T15:36:02;19.16;48.38
70708;SHT30;58277;47.316;18.908;2024-03-23T15:38:24;18.82;48.94
70708;SHT30;58277;47.316;18.908;2024-03-23T15:40:52;18.71;49.49
70708;SHT30;58277;47.316;18.908;2024-03-23T15:43:14;18.75;49.38
70708;SHT30;58277;47.316;18.908;2024-03-23T15:45:36;18.75;49.25
70708;SHT30;58277;47.316;18.908;2024-03-23T15:47:57;18.81;49.19
70708;SHT30;58277;47.316;18.908;2024-03-23T15:50:19;18.77;49.37
70708;SHT30;58277;47.316;18.908;2024-03-23T15:52:40;18.69;49.38
70708;SHT30;58277;47.316;18.908;2024-03-23T15:55:05;18.65;49.57
70708;SHT30;58277;47.316;18.908;2024-03-23T15:57:27;18.69;49.24